Latheron, United Kingdom
Current Conditions -  °F | °C
As of 5:20 PM on Sunday 23 Nov 2014 (Local Time) from EGPC Reporting Station
Few Clouds Few Clouds  
Wind Chill: 37°   Ceiling: Unl
Heat Index: 43°   Visibility: 6mi
Dew Point: 37°   Wind: 9mph
Humidity: 81%   Direction: 220°SW
Pressure: 29.85"   Gusts: NA
Location:  58.29°N, 3.35°W
Report Text: EGPC 231720Z 22008KT 190V260 9999 FEW036 06/03 Q1011
Loading
Personal Weather Stations






























Interactive Weather Map New forecast layout! Learn more

10-Day Weather Forecast

Advertisements
Track Severe Weather on mobile